WAT5288 KOFF-KEDW
Flight info
| Callsign | WAT5288 |
|---|---|
| Flight time | N/A |
| Altitude | 40000 |
| Route | LNK J146 HBU J128 TBC J64 HEC J6 HELDE |
| Aircraft | C700/M-VGDW/C |
Departure
| Time | 2026-04-26 03:55 |
|---|---|
| Airport | Offutt Air Force Base (KOFF) |
Arrival
| Time | N/A |
|---|---|
| Airport | Edwards Air Force Base (KEDW) |
| Time | Latitude | Longitude | Altitude | Speed | Heading |
|---|---|---|---|---|---|
| 2026-04-26 03:48 | 41.11154 | -95.90407 | 985 ft | 0 kts | 38° |
| 2026-04-26 03:53 | 41.11156 | -95.90404 | 985 ft | 4 kts | 39° |
| 2026-04-26 03:53 | 41.11185 | -95.90304 | 986 ft | 20 kts | 79° |
| 2026-04-26 03:53 | 41.11141 | -95.90169 | 986 ft | 21 kts | 131° |
| 2026-04-26 03:53 | 41.11033 | -95.89947 | 982 ft | 25 kts | 101° |
| 2026-04-26 03:54 | 41.11080 | -95.89793 | 983 ft | 15 kts | 22° |
| 2026-04-26 03:54 | 41.11176 | -95.89720 | 980 ft | 16 kts | 38° |
| 2026-04-26 03:54 | 41.11226 | -95.89705 | 984 ft | 0 kts | 309° |
| 2026-04-26 03:54 | 41.11349 | -95.89901 | 988 ft | 67 kts | 309° |
| 2026-04-26 03:55 | 41.11807 | -95.90641 | 1001 ft | 137 kts | 309° |
| 2026-04-26 03:55 | 41.12506 | -95.91817 | 1294 ft | 185 kts | 308° |
| 2026-04-26 03:55 | 41.13378 | -95.93250 | 1935 ft | 197 kts | 310° |
| 2026-04-26 03:55 | 41.14218 | -95.94745 | 2712 ft | 215 kts | 298° |
| 2026-04-26 03:56 | 41.14463 | -95.96716 | 3473 ft | 220 kts | 256° |
| 2026-04-26 03:56 | 41.14009 | -95.98611 | 4238 ft | 215 kts | 245° |
| 2026-04-26 03:56 | 41.13496 | -96.00516 | 5009 ft | 221 kts | 244° |
| 2026-04-26 03:56 | 41.12982 | -96.02408 | 5769 ft | 217 kts | 244° |
| 2026-04-26 03:57 | 41.12454 | -96.04312 | 6557 ft | 224 kts | 244° |
| 2026-04-26 03:57 | 41.11874 | -96.06350 | 7313 ft | 250 kts | 244° |
| 2026-04-26 03:57 | 41.11235 | -96.08567 | 8090 ft | 261 kts | 245° |
| 2026-04-26 03:57 | 41.10579 | -96.10839 | 8886 ft | 267 kts | 245° |
| 2026-04-26 03:58 | 41.09917 | -96.13125 | 9685 ft | 269 kts | 246° |
| 2026-04-26 03:58 | 41.09248 | -96.15458 | 10439 ft | 270 kts | 246° |
| 2026-04-26 03:58 | 41.08572 | -96.17796 | 11184 ft | 277 kts | 247° |
| 2026-04-26 03:58 | 41.07857 | -96.20292 | 11947 ft | 302 kts | 247° |
| 2026-04-26 03:59 | 41.07071 | -96.22994 | 12738 ft | 326 kts | 248° |
| 2026-04-26 03:59 | 41.06252 | -96.25857 | 13552 ft | 336 kts | 248° |
| 2026-04-26 03:59 | 41.05409 | -96.28769 | 14306 ft | 340 kts | 248° |
| 2026-04-26 03:59 | 41.04551 | -96.31703 | 15043 ft | 343 kts | 248° |
| 2026-04-26 04:00 | 41.03694 | -96.34660 | 15789 ft | 345 kts | 249° |
| 2026-04-26 04:00 | 41.02853 | -96.37641 | 16551 ft | 347 kts | 249° |
| 2026-04-26 04:00 | 41.02007 | -96.40655 | 17321 ft | 350 kts | 249° |
| 2026-04-26 04:00 | 41.01166 | -96.43652 | 18119 ft | 353 kts | 249° |
| 2026-04-26 04:01 | 41.00309 | -96.46706 | 18843 ft | 354 kts | 249° |
| 2026-04-26 04:01 | 40.99450 | -96.49777 | 19546 ft | 356 kts | 249° |
| 2026-04-26 04:01 | 40.98585 | -96.52870 | 20286 ft | 360 kts | 249° |
| 2026-04-26 04:01 | 40.97715 | -96.55987 | 21024 ft | 362 kts | 249° |
| 2026-04-26 04:02 | 40.96842 | -96.59128 | 21793 ft | 365 kts | 249° |
| 2026-04-26 04:02 | 40.95942 | -96.62280 | 22578 ft | 368 kts | 249° |
| 2026-04-26 04:02 | 40.95017 | -96.65458 | 23392 ft | 372 kts | 249° |
| 2026-04-26 04:02 | 40.94072 | -96.68682 | 24112 ft | 376 kts | 249° |
| 2026-04-26 04:03 | 40.93111 | -96.71918 | 24813 ft | 379 kts | 249° |
| 2026-04-26 04:03 | 40.92121 | -96.75166 | 25535 ft | 382 kts | 249° |
| 2026-04-26 04:03 | 40.91147 | -96.78444 | 26272 ft | 384 kts | 250° |
| 2026-04-26 04:03 | 40.90202 | -96.81745 | 27025 ft | 384 kts | 251° |
| 2026-04-26 04:04 | 40.89281 | -96.85020 | 27792 ft | 385 kts | 252° |
| 2026-04-26 04:04 | 40.88342 | -96.88335 | 28584 ft | 385 kts | 252° |
| 2026-04-26 04:04 | 40.87412 | -96.91649 | 29405 ft | 384 kts | 253° |
| 2026-04-26 04:04 | 40.86484 | -96.94957 | 30221 ft | 383 kts | 253° |
| 2026-04-26 04:05 | 40.85552 | -96.98249 | 30934 ft | 381 kts | 253° |
| 2026-04-26 04:05 | 40.84617 | -97.01512 | 31675 ft | 378 kts | 253° |
| 2026-04-26 04:05 | 40.83677 | -97.04778 | 32181 ft | 381 kts | 253° |
| 2026-04-26 04:05 | 40.82736 | -97.08060 | 32704 ft | 383 kts | 253° |
| 2026-04-26 04:06 | 40.81816 | -97.11359 | 33223 ft | 384 kts | 253° |
| 2026-04-26 04:06 | 40.80914 | -97.14625 | 33762 ft | 384 kts | 254° |
| 2026-04-26 04:06 | 40.80001 | -97.17937 | 34259 ft | 384 kts | 254° |
| 2026-04-26 04:06 | 40.79080 | -97.21251 | 34684 ft | 385 kts | 253° |
| 2026-04-26 04:07 | 40.78134 | -97.24583 | 34961 ft | 390 kts | 253° |
| 2026-04-26 04:07 | 40.77168 | -97.27977 | 35080 ft | 398 kts | 253° |
| 2026-04-26 04:07 | 40.76191 | -97.31421 | 35214 ft | 402 kts | 253° |
| 2026-04-26 04:07 | 40.75206 | -97.34878 | 35341 ft | 402 kts | 252° |
| 2026-04-26 04:08 | 40.74205 | -97.38308 | 35468 ft | 400 kts | 252° |
| 2026-04-26 04:08 | 40.73198 | -97.41726 | 35593 ft | 399 kts | 252° |
| 2026-04-26 04:08 | 40.72193 | -97.45133 | 35717 ft | 398 kts | 252° |
| 2026-04-26 04:08 | 40.71190 | -97.48534 | 35844 ft | 398 kts | 252° |
| 2026-04-26 04:09 | 40.70189 | -97.51947 | 35967 ft | 400 kts | 252° |
| 2026-04-26 04:09 | 40.69200 | -97.55335 | 36090 ft | 402 kts | 252° |
| 2026-04-26 04:09 | 40.68199 | -97.58782 | 36214 ft | 403 kts | 252° |
| 2026-04-26 04:09 | 40.67201 | -97.62229 | 36346 ft | 402 kts | 252° |
| 2026-04-26 04:10 | 40.66209 | -97.65668 | 36472 ft | 400 kts | 252° |
| 2026-04-26 04:10 | 40.65223 | -97.69094 | 36598 ft | 399 kts | 252° |
| 2026-04-26 04:10 | 40.64245 | -97.72507 | 36723 ft | 397 kts | 252° |
| 2026-04-26 04:10 | 40.63252 | -97.75904 | 36854 ft | 398 kts | 251° |
| 2026-04-26 04:11 | 40.62242 | -97.79307 | 36990 ft | 400 kts | 251° |
| 2026-04-26 04:11 | 40.61222 | -97.82722 | 37117 ft | 401 kts | 251° |
| 2026-04-26 04:11 | 40.60202 | -97.86145 | 37252 ft | 402 kts | 251° |
| 2026-04-26 04:11 | 40.59178 | -97.89578 | 37392 ft | 402 kts | 251° |
| 2026-04-26 04:12 | 40.58165 | -97.92951 | 37521 ft | 401 kts | 251° |
| 2026-04-26 04:12 | 40.57103 | -97.96337 | 37655 ft | 400 kts | 250° |
| 2026-04-26 04:12 | 40.56068 | -97.99731 | 37787 ft | 398 kts | 251° |
| 2026-04-26 04:12 | 40.55058 | -98.03112 | 37926 ft | 397 kts | 251° |
| 2026-04-26 04:13 | 40.54056 | -98.06502 | 38066 ft | 397 kts | 251° |
| 2026-04-26 04:13 | 40.53060 | -98.09893 | 38202 ft | 398 kts | 251° |
| 2026-04-26 04:13 | 40.52063 | -98.13298 | 38346 ft | 399 kts | 251° |
| 2026-04-26 04:13 | 40.51069 | -98.16705 | 38488 ft | 400 kts | 251° |
| 2026-04-26 04:14 | 40.50075 | -98.20127 | 38638 ft | 401 kts | 251° |
| 2026-04-26 04:14 | 40.49081 | -98.23556 | 38750 ft | 400 kts | 251° |
| 2026-04-26 04:14 | 40.48105 | -98.26927 | 38858 ft | 399 kts | 251° |
| 2026-04-26 04:14 | 40.47119 | -98.30330 | 38971 ft | 398 kts | 251° |
| 2026-04-26 04:15 | 40.46116 | -98.33711 | 39084 ft | 397 kts | 251° |
| 2026-04-26 04:15 | 40.45095 | -98.37099 | 39192 ft | 398 kts | 251° |
| 2026-04-26 04:15 | 40.44067 | -98.40490 | 39302 ft | 400 kts | 251° |
| 2026-04-26 04:15 | 40.43034 | -98.43896 | 39417 ft | 403 kts | 251° |
| 2026-04-26 04:16 | 40.42348 | -98.46162 | 39494 ft | 404 kts | 251° |
| 2026-04-26 04:16 | 40.40968 | -98.50727 | 39643 ft | 408 kts | 251° |
| 2026-04-26 04:16 | 40.39922 | -98.54196 | 39756 ft | 410 kts | 251° |
| 2026-04-26 04:16 | 40.38871 | -98.57684 | 39877 ft | 412 kts | 251° |
| 2026-04-26 04:17 | 40.37820 | -98.61183 | 39982 ft | 411 kts | 251° |
| 2026-04-26 04:17 | 40.36076 | -98.67001 | 39978 ft | 411 kts | 251° |
| 2026-04-26 04:18 | 40.33999 | -98.73936 | 39977 ft | 406 kts | 251° |
| 2026-04-26 04:18 | 40.31938 | -98.80828 | 39979 ft | 407 kts | 251° |
| 2026-04-26 04:19 | 40.29817 | -98.87744 | 39980 ft | 411 kts | 250° |
| 2026-04-26 04:19 | 40.27646 | -98.94684 | 39987 ft | 411 kts | 250° |
| 2026-04-26 04:20 | 40.25499 | -99.01533 | 39992 ft | 408 kts | 250° |
| 2026-04-26 04:20 | 40.23351 | -99.08387 | 39991 ft | 406 kts | 250° |
| 2026-04-26 04:21 | 40.21225 | -99.15253 | 39996 ft | 408 kts | 251° |
| 2026-04-26 04:21 | 40.19156 | -99.22209 | 39998 ft | 411 kts | 251° |
| 2026-04-26 04:22 | 40.17059 | -99.29114 | 40002 ft | 409 kts | 250° |
| 2026-04-26 04:22 | 40.14863 | -99.35969 | 40003 ft | 407 kts | 249° |
| 2026-04-26 04:23 | 40.12693 | -99.42775 | 40000 ft | 406 kts | 250° |
| 2026-04-26 04:23 | 40.10564 | -99.49630 | 40003 ft | 408 kts | 250° |
| 2026-04-26 04:24 | 40.08452 | -99.56472 | 40005 ft | 409 kts | 250° |
| 2026-04-26 04:24 | 40.06326 | -99.63384 | 40008 ft | 410 kts | 250° |
| 2026-04-26 04:25 | 40.04174 | -99.70255 | 40014 ft | 408 kts | 250° |
| 2026-04-26 04:25 | 40.01979 | -99.77073 | 40009 ft | 406 kts | 250° |
| 2026-04-26 04:26 | 39.99785 | -99.83855 | 40005 ft | 407 kts | 249° |
| 2026-04-26 04:26 | 39.97581 | -99.90679 | 40004 ft | 410 kts | 250° |
| 2026-04-26 04:27 | 39.95366 | -99.97563 | 40009 ft | 412 kts | 250° |
| 2026-04-26 04:27 | 39.93171 | -100.04396 | 40009 ft | 410 kts | 250° |
| 2026-04-26 04:28 | 39.90981 | -100.11229 | 40011 ft | 407 kts | 250° |
| 2026-04-26 04:28 | 39.88802 | -100.18045 | 40003 ft | 409 kts | 250° |
| 2026-04-26 04:29 | 39.86620 | -100.24901 | 40022 ft | 411 kts | 250° |
| 2026-04-26 04:29 | 39.84437 | -100.31794 | 40024 ft | 413 kts | 250° |
| 2026-04-26 04:30 | 39.82249 | -100.38731 | 40029 ft | 414 kts | 250° |
| 2026-04-26 04:30 | 39.80014 | -100.45619 | 40029 ft | 412 kts | 249° |
| 2026-04-26 04:31 | 39.77762 | -100.52458 | 40028 ft | 410 kts | 249° |
| 2026-04-26 04:31 | 39.75529 | -100.59242 | 40027 ft | 412 kts | 249° |
| 2026-04-26 04:32 | 39.73274 | -100.66107 | 40026 ft | 414 kts | 249° |
| 2026-04-26 04:32 | 39.71013 | -100.73014 | 40027 ft | 416 kts | 249° |
| 2026-04-26 04:33 | 39.68755 | -100.79929 | 40048 ft | 415 kts | 249° |
| 2026-04-26 04:33 | 39.66511 | -100.86816 | 40052 ft | 414 kts | 249° |
| 2026-04-26 04:34 | 39.64278 | -100.93688 | 40052 ft | 412 kts | 249° |
| 2026-04-26 04:34 | 39.62010 | -101.00531 | 40023 ft | 414 kts | 249° |
| 2026-04-26 04:35 | 39.59683 | -101.07391 | 40026 ft | 417 kts | 248° |
| 2026-04-26 04:35 | 39.57338 | -101.14294 | 40026 ft | 419 kts | 248° |
| 2026-04-26 04:36 | 39.54993 | -101.21195 | 40025 ft | 418 kts | 248° |
| 2026-04-26 04:36 | 39.52693 | -101.28042 | 40019 ft | 416 kts | 249° |
| 2026-04-26 04:37 | 39.50456 | -101.34934 | 40014 ft | 414 kts | 249° |
| 2026-04-26 04:37 | 39.48180 | -101.41783 | 40001 ft | 414 kts | 249° |
| 2026-04-26 04:38 | 39.45864 | -101.48647 | 40007 ft | 417 kts | 249° |
| 2026-04-26 04:38 | 39.43535 | -101.55530 | 40015 ft | 419 kts | 249° |
| 2026-04-26 04:39 | 39.41194 | -101.62438 | 40022 ft | 418 kts | 249° |
| 2026-04-26 04:39 | 39.38881 | -101.69277 | 40021 ft | 416 kts | 251° |
| 2026-04-26 04:40 | 39.37366 | -101.76439 | 40025 ft | 412 kts | 259° |
| 2026-04-26 04:40 | 39.36405 | -101.83732 | 40025 ft | 410 kts | 262° |
| 2026-04-26 04:41 | 39.35508 | -101.91012 | 40018 ft | 410 kts | 261° |
| 2026-04-26 04:41 | 39.34521 | -101.98302 | 40015 ft | 413 kts | 261° |
| 2026-04-26 04:42 | 39.33429 | -102.05605 | 40024 ft | 415 kts | 260° |
| 2026-04-26 04:42 | 39.32312 | -102.12858 | 40029 ft | 413 kts | 260° |
| 2026-04-26 04:43 | 39.31191 | -102.20101 | 40030 ft | 410 kts | 260° |
| 2026-04-26 04:43 | 39.30076 | -102.27298 | 40027 ft | 409 kts | 260° |
| 2026-04-26 04:44 | 39.28959 | -102.34524 | 40033 ft | 411 kts | 260° |
| 2026-04-26 04:44 | 39.27841 | -102.41772 | 40033 ft | 413 kts | 260° |
| 2026-04-26 04:45 | 39.26729 | -102.48993 | 40028 ft | 411 kts | 260° |
| 2026-04-26 04:45 | 39.25621 | -102.56211 | 40022 ft | 408 kts | 260° |
| 2026-04-26 04:46 | 39.24456 | -102.63375 | 40006 ft | 407 kts | 259° |
| 2026-04-26 04:46 | 39.23257 | -102.70538 | 39997 ft | 410 kts | 259° |
| 2026-04-26 04:47 | 39.22047 | -102.77746 | 39993 ft | 412 kts | 259° |
| 2026-04-26 04:47 | 39.20893 | -102.84992 | 39994 ft | 412 kts | 260° |
| 2026-04-26 04:48 | 39.19237 | -102.95766 | 39994 ft | 408 kts | 260° |
| 2026-04-26 04:48 | 39.18074 | -103.02916 | 39993 ft | 407 kts | 259° |
| 2026-04-26 04:49 | 39.16891 | -103.10101 | 39988 ft | 411 kts | 259° |
| 2026-04-26 04:49 | 39.15706 | -103.17336 | 39988 ft | 413 kts | 259° |
| 2026-04-26 04:50 | 39.14528 | -103.24570 | 39988 ft | 411 kts | 259° |
| 2026-04-26 04:50 | 39.13369 | -103.31724 | 39988 ft | 409 kts | 259° |
| 2026-04-26 04:51 | 39.12214 | -103.38887 | 39991 ft | 407 kts | 259° |
| 2026-04-26 04:51 | 39.11052 | -103.46022 | 39998 ft | 408 kts | 259° |
| 2026-04-26 04:52 | 39.09816 | -103.53170 | 40001 ft | 410 kts | 259° |
| 2026-04-26 04:52 | 39.08561 | -103.60317 | 40000 ft | 410 kts | 259° |
| 2026-04-26 04:53 | 39.07321 | -103.67469 | 40002 ft | 407 kts | 259° |
| 2026-04-26 04:53 | 39.06164 | -103.74567 | 39995 ft | 404 kts | 259° |
| 2026-04-26 04:54 | 39.05028 | -103.81642 | 39989 ft | 405 kts | 259° |
| 2026-04-26 04:54 | 39.03824 | -103.88747 | 39983 ft | 408 kts | 259° |
| 2026-04-26 04:55 | 39.02585 | -103.95886 | 39978 ft | 408 kts | 259° |
| 2026-04-26 04:55 | 39.01353 | -104.02975 | 39977 ft | 404 kts | 259° |
| 2026-04-26 04:56 | 39.00140 | -104.09967 | 39970 ft | 402 kts | 259° |
| 2026-04-26 04:56 | 38.98928 | -104.17003 | 39982 ft | 404 kts | 259° |
| 2026-04-26 04:57 | 38.97714 | -104.24084 | 39994 ft | 406 kts | 259° |
| 2026-04-26 04:57 | 38.96514 | -104.31166 | 40006 ft | 405 kts | 259° |
| 2026-04-26 04:58 | 38.95326 | -104.38201 | 40014 ft | 401 kts | 259° |
| 2026-04-26 04:58 | 38.94085 | -104.45176 | 40021 ft | 399 kts | 258° |
| 2026-04-26 04:59 | 38.92843 | -104.52067 | 40024 ft | 399 kts | 258° |
| 2026-04-26 04:59 | 38.91595 | -104.59032 | 40022 ft | 401 kts | 258° |
| 2026-04-26 05:00 | 38.90346 | -104.66034 | 40025 ft | 403 kts | 258° |
| 2026-04-26 05:00 | 38.89098 | -104.73038 | 40004 ft | 401 kts | 258° |
| 2026-04-26 05:01 | 38.87859 | -104.79993 | 39984 ft | 397 kts | 258° |
| 2026-04-26 05:01 | 38.86633 | -104.86908 | 39979 ft | 398 kts | 258° |
| 2026-04-26 05:02 | 38.85405 | -104.93849 | 39967 ft | 400 kts | 258° |
| 2026-04-26 05:02 | 38.84176 | -105.00757 | 39950 ft | 398 kts | 258° |
| 2026-04-26 05:03 | 38.82941 | -105.07679 | 39931 ft | 402 kts | 258° |
| 2026-04-26 05:03 | 38.81619 | -105.14696 | 39913 ft | 406 kts | 257° |
| 2026-04-26 05:04 | 38.80286 | -105.21688 | 39885 ft | 401 kts | 257° |
| 2026-04-26 05:04 | 38.79002 | -105.28640 | 39874 ft | 401 kts | 258° |
| 2026-04-26 05:05 | 38.77977 | -105.34461 | 39872 ft | 405 kts | 258° |
| 2026-04-26 05:05 | 38.76714 | -105.41525 | 39862 ft | 407 kts | 258° |
| 2026-04-26 05:06 | 38.75403 | -105.48557 | 39854 ft | 405 kts | 258° |
| 2026-04-26 05:06 | 38.74088 | -105.55545 | 39844 ft | 403 kts | 258° |
| 2026-04-26 05:07 | 38.72780 | -105.62511 | 39832 ft | 401 kts | 258° |
| 2026-04-26 05:07 | 38.71473 | -105.69489 | 39839 ft | 404 kts | 258° |
| 2026-04-26 05:08 | 38.70163 | -105.76527 | 39852 ft | 407 kts | 258° |
| 2026-04-26 05:08 | 38.68870 | -105.83518 | 39862 ft | 405 kts | 258° |
| 2026-04-26 05:09 | 38.67581 | -105.90512 | 39878 ft | 402 kts | 257° |
| 2026-04-26 05:09 | 38.66236 | -105.97455 | 39900 ft | 402 kts | 257° |
| 2026-04-26 05:10 | 38.64866 | -106.04422 | 39917 ft | 405 kts | 257° |
| 2026-04-26 05:10 | 38.63489 | -106.11432 | 39912 ft | 406 kts | 257° |
| 2026-04-26 05:11 | 38.62124 | -106.18430 | 39892 ft | 404 kts | 257° |
| 2026-04-26 05:11 | 38.60788 | -106.25380 | 39868 ft | 400 kts | 257° |
| 2026-04-26 05:12 | 38.59458 | -106.32268 | 39839 ft | 402 kts | 257° |
| 2026-04-26 05:12 | 38.58123 | -106.39236 | 39808 ft | 404 kts | 257° |
| 2026-04-26 05:13 | 38.56801 | -106.46214 | 39788 ft | 406 kts | 257° |
| 2026-04-26 05:13 | 38.55462 | -106.53245 | 39791 ft | 405 kts | 257° |
| 2026-04-26 05:14 | 38.54152 | -106.60186 | 39833 ft | 400 kts | 257° |
| 2026-04-26 05:14 | 38.52820 | -106.67096 | 39865 ft | 402 kts | 256° |
| 2026-04-26 05:15 | 38.51417 | -106.74035 | 39898 ft | 404 kts | 256° |
| 2026-04-26 05:15 | 38.50010 | -106.80935 | 39933 ft | 402 kts | 256° |
| 2026-04-26 05:16 | 38.48604 | -106.87822 | 39936 ft | 399 kts | 256° |
| 2026-04-26 05:16 | 38.47216 | -106.94680 | 39933 ft | 399 kts | 256° |
| 2026-04-26 05:17 | 38.45831 | -107.01546 | 39926 ft | 400 kts | 256° |
| 2026-04-26 05:17 | 38.43891 | -107.08198 | 39904 ft | 403 kts | 244° |
| 2026-04-26 05:18 | 38.40813 | -107.14197 | 39871 ft | 406 kts | 238° |
| 2026-04-26 05:18 | 38.37468 | -107.20012 | 39836 ft | 407 kts | 237° |
| 2026-04-26 05:19 | 38.34164 | -107.25879 | 39806 ft | 406 kts | 238° |
| 2026-04-26 05:19 | 38.30989 | -107.31788 | 39780 ft | 402 kts | 239° |
| 2026-04-26 05:20 | 38.27883 | -107.37702 | 39780 ft | 400 kts | 239° |
| 2026-04-26 05:20 | 38.24795 | -107.43613 | 39784 ft | 403 kts | 239° |
| 2026-04-26 05:21 | 38.21687 | -107.49581 | 39792 ft | 405 kts | 239° |
| 2026-04-26 05:21 | 38.18612 | -107.55503 | 39796 ft | 403 kts | 239° |
| 2026-04-26 05:22 | 38.15534 | -107.61426 | 39839 ft | 400 kts | 239° |
| 2026-04-26 05:22 | 38.12474 | -107.67310 | 39882 ft | 397 kts | 239° |
| 2026-04-26 05:23 | 38.09424 | -107.73184 | 39928 ft | 404 kts | 239° |
| 2026-04-26 05:23 | 38.06279 | -107.79078 | 39974 ft | 402 kts | 239° |
| 2026-04-26 05:24 | 38.03133 | -107.84910 | 40018 ft | 400 kts | 239° |
| 2026-04-26 05:24 | 37.99991 | -107.90724 | 40032 ft | 400 kts | 239° |
| 2026-04-26 05:25 | 37.96870 | -107.96617 | 40029 ft | 404 kts | 239° |
| 2026-04-26 05:25 | 37.93770 | -108.02594 | 40023 ft | 403 kts | 239° |
| 2026-04-26 05:26 | 37.90686 | -108.08395 | 39978 ft | 397 kts | 239° |
| 2026-04-26 05:26 | 37.87547 | -108.14214 | 39940 ft | 403 kts | 239° |
| 2026-04-26 05:27 | 37.84383 | -108.20089 | 39903 ft | 401 kts | 239° |
| 2026-04-26 05:27 | 37.81258 | -108.25885 | 39859 ft | 399 kts | 239° |
| 2026-04-26 05:28 | 37.78129 | -108.31698 | 39822 ft | 400 kts | 239° |
| 2026-04-26 05:28 | 37.74992 | -108.37536 | 39822 ft | 402 kts | 239° |
| 2026-04-26 05:29 | 37.71863 | -108.43374 | 39822 ft | 400 kts | 239° |
| 2026-04-26 05:29 | 37.68817 | -108.49102 | 39811 ft | 390 kts | 238° |
| 2026-04-26 05:30 | 37.65812 | -108.54786 | 39807 ft | 391 kts | 238° |
| 2026-04-26 05:30 | 37.62745 | -108.60520 | 39832 ft | 395 kts | 237° |
| 2026-04-26 05:31 | 37.59645 | -108.66202 | 39851 ft | 390 kts | 237° |
| 2026-04-26 05:31 | 37.56564 | -108.71833 | 39860 ft | 390 kts | 237° |
| 2026-04-26 05:32 | 37.53479 | -108.77467 | 39861 ft | 390 kts | 237° |
| 2026-04-26 05:32 | 37.50395 | -108.83103 | 39860 ft | 391 kts | 237° |
| 2026-04-26 05:33 | 37.47314 | -108.88745 | 39847 ft | 391 kts | 237° |
| 2026-04-26 05:33 | 37.44257 | -108.94362 | 39834 ft | 391 kts | 237° |
| 2026-04-26 05:34 | 37.41180 | -109.00014 | 39805 ft | 392 kts | 237° |
| 2026-04-26 05:34 | 37.38107 | -109.05671 | 39777 ft | 392 kts | 237° |
| 2026-04-26 05:35 | 37.35037 | -109.11331 | 39768 ft | 392 kts | 237° |
| 2026-04-26 05:35 | 37.31943 | -109.16971 | 39766 ft | 392 kts | 236° |
| 2026-04-26 05:36 | 37.28800 | -109.22572 | 39762 ft | 392 kts | 236° |
| 2026-04-26 05:36 | 37.25649 | -109.28167 | 39764 ft | 392 kts | 236° |
| 2026-04-26 05:37 | 37.22520 | -109.33718 | 39763 ft | 392 kts | 236° |
| 2026-04-26 05:37 | 37.19386 | -109.39318 | 39756 ft | 392 kts | 237° |
| 2026-04-26 05:38 | 37.16318 | -109.44965 | 39755 ft | 392 kts | 237° |
| 2026-04-26 05:38 | 37.13250 | -109.50621 | 39753 ft | 392 kts | 237° |
| 2026-04-26 05:39 | 37.10129 | -109.56233 | 39750 ft | 393 kts | 236° |
| 2026-04-26 05:39 | 37.06995 | -109.61830 | 39751 ft | 393 kts | 236° |
| 2026-04-26 05:40 | 37.03859 | -109.67428 | 39745 ft | 393 kts | 236° |
| 2026-04-26 05:40 | 37.00716 | -109.73037 | 39745 ft | 393 kts | 236° |
| 2026-04-26 05:41 | 36.97578 | -109.78643 | 39744 ft | 393 kts | 236° |
| 2026-04-26 05:41 | 36.94436 | -109.84251 | 39745 ft | 394 kts | 236° |
| 2026-04-26 05:42 | 36.91310 | -109.89833 | 39742 ft | 394 kts | 236° |
| 2026-04-26 05:42 | 36.88168 | -109.95442 | 39745 ft | 392 kts | 236° |
| 2026-04-26 05:43 | 36.85047 | -110.01016 | 39739 ft | 391 kts | 236° |
| 2026-04-26 05:43 | 36.81931 | -110.06571 | 39741 ft | 389 kts | 236° |
| 2026-04-26 05:44 | 36.78775 | -110.12047 | 39740 ft | 389 kts | 236° |
| 2026-04-26 05:44 | 36.75591 | -110.17529 | 39742 ft | 392 kts | 236° |
| 2026-04-26 05:45 | 36.72406 | -110.23079 | 39746 ft | 394 kts | 236° |
| 2026-04-26 05:45 | 36.69302 | -110.28632 | 39751 ft | 392 kts | 236° |
| 2026-04-26 05:46 | 36.66198 | -110.34181 | 39747 ft | 388 kts | 236° |
| 2026-04-26 05:46 | 36.63062 | -110.39663 | 39763 ft | 391 kts | 236° |
| 2026-04-26 05:47 | 36.59876 | -110.45194 | 39769 ft | 393 kts | 236° |
| 2026-04-26 05:47 | 36.56706 | -110.50691 | 39772 ft | 389 kts | 236° |
| 2026-04-26 05:48 | 36.53563 | -110.56138 | 39769 ft | 387 kts | 236° |
| 2026-04-26 05:48 | 36.50413 | -110.61596 | 39769 ft | 389 kts | 236° |
| 2026-04-26 05:49 | 36.45681 | -110.69805 | 39773 ft | 391 kts | 236° |
| 2026-04-26 05:50 | 36.42526 | -110.75278 | 39773 ft | 388 kts | 236° |
| 2026-04-26 05:50 | 36.39923 | -110.79796 | 39772 ft | 386 kts | 236° |
| 2026-04-26 05:51 | 36.36801 | -110.85222 | 39767 ft | 388 kts | 236° |
| 2026-04-26 05:51 | 36.33650 | -110.90698 | 39770 ft | 391 kts | 236° |
| 2026-04-26 05:52 | 36.30490 | -110.96189 | 39769 ft | 390 kts | 236° |
| 2026-04-26 05:52 | 36.27345 | -111.01653 | 39768 ft | 388 kts | 236° |
| 2026-04-26 05:53 | 36.24231 | -111.07062 | 39766 ft | 387 kts | 236° |
| 2026-04-26 05:53 | 36.21088 | -111.12460 | 39764 ft | 385 kts | 235° |